aviador You're here:

ETSB Decoded Metar

BUECHEL in GERMANY
Report Time2018-06-20 16:20:00
UTC Time2018-06-20 17:19:56
Flight Rules vfr VFR
Wind230° at 06 kt
W.Decomp.*RWY 21: 5.7 kt HW 2.0 kt RCW
W.Rank230° ranks 2
Current wind is below 230° avg. (8.7)
Visibility9999 m
Phenomena:N/A
Clouds:Few 050 Hf
Expected CloudBase > 4,800 ft AGL from Temp-Dew spread
CeilingNone
Temp25°C (ISA +13)
Dew Point13°C (47% RH)
AAT23.7°C
QNH1020 hPa
Density Alt3,084 ft
Elevation1,594 ft
Report Wrong Elevation
Raw Report
METAR ETSB 201620Z 23006KT 9999 FEW050 25/13 Q1020 BLU+BLU+=

Extra information for ETSB:More info

Metar Taf Metar & Taf Last 4 Metars F.Rules Stats Wind Profile Meteogram Temp Stats Airport Information Weather charts Add Link Nearby VenuesMetar ALERT Operation Metar Decoded Social comments